Time;durP1;ratioP1;P1;durP2;ratioP2;P2;SDS_P1;SDS_P2;PMS_P1;PMS_P2;Temp;Humidity;BMP_temperature;BMP_pressure;BME280_temperature;BME280_humidity;BME280_pressure;Samples;Min_cycle;Max_cycle;Signal;HPM_P1;HPM_P2
2022/10/01 00:02:02;;;;;;;12.95;7.85;;;;;;;;;;5018506;28;20137;-58
2022/10/01 00:04:28;;;;;;;9.93;6.30;;;;;;;;;;5026235;28;20048;-57
2022/10/01 00:06:58;;;;;;;10.23;7.00;;;;;;;;;;5027034;28;20041;-55
2022/10/01 00:09:24;;;;;;;15.10;8.35;;;;;;;;;;5025947;28;20045;-57
2022/10/01 00:11:52;;;;;;;11.32;7.18;;;;;;;;;;5026489;28;20037;-56
2022/10/01 00:14:18;;;;;;;11.90;7.97;;;;;;;;;;5021694;28;20462;-58
2022/10/01 00:16:44;;;;;;;15.65;7.70;;;;;;;;;;5026988;28;20050;-57
2022/10/01 00:19:13;;;;;;;12.90;8.63;;;;;;;;;;5026492;28;20466;-57
2022/10/01 00:21:39;;;;;;;11.93;8.35;;;;;;;;;;5026964;28;20403;-57
2022/10/01 00:24:06;;;;;;;13.07;7.68;;;;;;;;;;5025759;28;20089;-55
2022/10/01 00:26:33;;;;;;;13.55;7.35;;;;;;;;;;5027192;28;20037;-59
2022/10/01 00:29:01;;;;;;;17.20;8.27;;;;;;;;;;5019125;28;20048;-57
2022/10/01 00:31:27;;;;;;;12.07;7.73;;;;;;;;;;5024626;28;20053;-56
2022/10/01 00:33:54;;;;;;;12.18;7.78;;;;;;;;;;5018670;28;20048;-57
2022/10/01 00:36:21;;;;;;;13.88;7.85;;;;;;;;;;5023098;28;20553;-57
2022/10/01 00:38:47;;;;;;;15.15;8.38;;;;;;;;;;5025385;28;20045;-56
2022/10/01 00:41:14;;;;;;;14.98;7.70;;;;;;;;;;5022705;28;20037;-57
2022/10/01 00:43:49;;;;;;;13.13;8.35;;;;;;;;;;5024696;28;20037;-56
2022/10/01 00:46:19;;;;;;;11.48;7.85;;;;;;;;;;5027213;28;20053;-56
2022/10/01 00:48:59;;;;;;;13.52;8.82;;;;;;;;;;5022140;28;20050;-57
2022/10/01 00:51:28;;;;;;;13.55;8.73;;;;;;;;;;5025377;28;20114;-57
2022/10/01 00:53:55;;;;;;;;;;;;;;;;;;5016813;28;20774;-57
2022/10/01 00:56:22;;;;;;;14.73;8.38;;;;;;;;;;5025699;28;19932;-56
2022/10/01 00:58:53;;;;;;;9.77;7.20;;;;;;;;;;5025922;28;20530;-57
2022/10/01 01:01:19;;;;;;;13.70;8.32;;;;;;;;;;5025973;28;20047;-56
2022/10/01 01:03:45;;;;;;;11.60;7.63;;;;;;;;;;5025865;28;20049;-56
2022/10/01 01:06:12;;;;;;;12.77;7.90;;;;;;;;;;5024316;28;20049;-57
2022/10/01 01:08:38;;;;;;;10.80;8.07;;;;;;;;;;5025226;28;20068;-57
2022/10/01 01:11:10;;;;;;;15.05;8.48;;;;;;;;;;5025789;28;20389;-57
2022/10/01 01:13:36;;;;;;;13.75;8.27;;;;;;;;;;5025120;28;20503;-56
2022/10/01 01:16:02;;;;;;;12.70;7.72;;;;;;;;;;5022682;28;20132;-57
2022/10/01 01:18:36;;;;;;;13.60;8.38;;;;;;;;;;5021163;28;20046;-57
2022/10/01 01:21:13;;;;;;;12.40;7.75;;;;;;;;;;5008112;28;20491;-57
2022/10/01 01:23:40;;;;;;;15.60;8.10;;;;;;;;;;4994307;28;20095;-56
2022/10/01 01:26:15;;;;;;;15.68;8.48;;;;;;;;;;5022961;28;20042;-57
2022/10/01 01:28:44;;;;;;;14.43;8.52;;;;;;;;;;5023819;28;20048;-57
2022/10/01 01:31:13;;;;;;;13.40;8.52;;;;;;;;;;5022884;28;20034;-56
2022/10/01 01:33:40;;;;;;;14.15;8.85;;;;;;;;;;5024355;28;20049;-57
2022/10/01 01:36:10;;;;;;;14.57;8.18;;;;;;;;;;5016285;28;20490;-57
2022/10/01 01:38:39;;;;;;;11.43;7.78;;;;;;;;;;5024455;28;20041;-57
2022/10/01 01:41:06;;;;;;;13.25;8.50;;;;;;;;;;5025613;28;20048;-57
2022/10/01 01:43:35;;;;;;;12.98;8.05;;;;;;;;;;5024556;28;20048;-57
2022/10/01 01:46:03;;;;;;;11.48;8.65;;;;;;;;;;5014050;28;20060;-57
2022/10/01 01:48:30;;;;;;;12.25;8.20;;;;;;;;;;5025058;28;20407;-57
2022/10/01 01:51:00;;;;;;;11.48;7.53;;;;;;;;;;5008033;28;20049;-56
2022/10/01 01:53:26;;;;;;;11.30;7.95;;;;;;;;;;5023274;28;20484;-56
2022/10/01 01:55:52;;;;;;;12.10;7.80;;;;;;;;;;4997199;28;20489;-56
2022/10/01 01:58:19;;;;;;;12.15;7.63;;;;;;;;;;5019467;28;20041;-57
2022/10/01 02:00:51;;;;;;;13.32;7.88;;;;;;;;;;5024170;28;20041;-57
2022/10/01 02:03:20;;;;;;;12.98;7.78;;;;;;;;;;5025607;28;20064;-57
2022/10/01 02:05:56;;;;;;;10.25;7.18;;;;;;;;;;5020178;28;20042;-57
2022/10/01 02:08:26;;;;;;;11.57;7.32;;;;;;;;;;5024585;28;20041;-57
2022/10/01 02:11:00;;;;;;;12.52;7.13;;;;;;;;;;5018854;28;20057;-57
2022/10/01 02:13:44;;;;;;;10.77;7.28;;;;;;;;;;5021644;28;20041;-55
2022/10/01 02:16:17;;;;;;;12.90;7.68;;;;;;;;;;5025032;28;20079;-56
2022/10/01 02:18:44;;;;;;;10.35;7.07;;;;;;;;;;5014875;28;20059;-56
2022/10/01 02:21:10;;;;;;;9.25;6.88;;;;;;;;;;5025071;28;20459;-56
2022/10/01 02:23:43;;;;;;;11.93;6.72;;;;;;;;;;5022134;28;20129;-55
2022/10/01 02:26:12;;;;;;;11.02;7.43;;;;;;;;;;5024923;28;20041;-57
2022/10/01 02:28:39;;;;;;;11.95;7.28;;;;;;;;;;5021643;28;20099;-56
2022/10/01 02:31:05;;;;;;;11.48;7.22;;;;;;;;;;5020341;28;20594;-56
2022/10/01 02:33:34;;;;;;;10.95;7.20;;;;;;;;;;5025306;28;20042;-56
2022/10/01 02:36:01;;;;;;;11.07;6.40;;;;;;;;;;5018726;28;20038;-57
2022/10/01 02:38:27;;;;;;;11.07;7.00;;;;;;;;;;5024387;28;20041;-57
2022/10/01 02:40:55;;;;;;;10.23;6.85;;;;;;;;;;5024681;28;20040;-57
2022/10/01 02:43:25;;;;;;;10.20;7.13;;;;;;;;;;5024496;28;20550;-57
2022/10/01 02:45:54;;;;;;;9.13;6.47;;;;;;;;;;5005384;28;20053;-57
2022/10/01 02:48:20;;;;;;;10.30;6.78;;;;;;;;;;5017753;28;20049;-56
2022/10/01 02:50:49;;;;;;;10.20;6.35;;;;;;;;;;5011368;28;20042;-57
2022/10/01 02:53:24;;;;;;;11.85;6.93;;;;;;;;;;5024200;28;20052;-57
2022/10/01 02:55:51;;;;;;;9.20;6.43;;;;;;;;;;5027921;28;20044;-57
2022/10/01 02:58:17;;;;;;;9.55;5.97;;;;;;;;;;5028104;28;20125;-56
2022/10/01 03:00:43;;;;;;;9.07;5.95;;;;;;;;;;5024890;28;20084;-56
2022/10/01 03:03:10;;;;;;;8.07;5.15;;;;;;;;;;5028477;28;22001;-57
2022/10/01 03:05:36;;;;;;;8.68;5.57;;;;;;;;;;5028077;28;20076;-56
2022/10/01 03:08:02;;;;;;;9.18;5.20;;;;;;;;;;5028193;28;20076;-57
2022/10/01 03:10:28;;;;;;;8.73;5.40;;;;;;;;;;5020482;28;20057;-56
2022/10/01 03:12:54;;;;;;;8.15;4.78;;;;;;;;;;5009587;28;20041;-55
2022/10/01 03:15:20;;;;;;;7.32;4.60;;;;;;;;;;5018612;28;20068;-55
2022/10/01 03:17:53;;;;;;;6.25;4.18;;;;;;;;;;5027921;28;20514;-56
2022/10/01 03:20:19;;;;;;;8.30;5.07;;;;;;;;;;5025407;28;20052;-57
2022/10/01 03:22:46;;;;;;;6.50;4.72;;;;;;;;;;5027281;28;20136;-57
2022/10/01 03:25:12;;;;;;;6.70;4.53;;;;;;;;;;5027557;28;20050;-56
2022/10/01 03:27:39;;;;;;;6.22;4.60;;;;;;;;;;5021653;28;20049;-57
2022/10/01 03:30:05;;;;;;;7.63;3.83;;;;;;;;;;5028326;28;20064;-56
2022/10/01 03:32:32;;;;;;;6.30;4.30;;;;;;;;;;5015534;28;20045;-57
2022/10/01 03:34:58;;;;;;;7.15;3.97;;;;;;;;;;5027844;28;20183;-56
2022/10/01 03:37:24;;;;;;;5.90;3.65;;;;;;;;;;5027192;28;20033;-57
2022/10/01 03:39:51;;;;;;;7.38;3.88;;;;;;;;;;5022011;28;20046;-56
2022/10/01 03:42:17;;;;;;;5.13;3.47;;;;;;;;;;5023673;28;20033;-55
2022/10/01 03:44:43;;;;;;;5.85;3.13;;;;;;;;;;5018305;28;20114;-57
2022/10/01 03:47:10;;;;;;;5.32;3.40;;;;;;;;;;5019283;28;20049;-57
2022/10/01 03:49:36;;;;;;;4.80;3.40;;;;;;;;;;5008109;28;20045;-55
2022/10/01 03:52:03;;;;;;;4.80;3.03;;;;;;;;;;5026092;28;20052;-58
2022/10/01 03:54:30;;;;;;;4.43;3.20;;;;;;;;;;5025737;28;20495;-55
2022/10/01 03:56:56;;;;;;;4.97;3.30;;;;;;;;;;5027259;28;20049;-57
2022/10/01 03:59:22;;;;;;;4.53;2.60;;;;;;;;;;5025028;28;20456;-56
2022/10/01 04:01:49;;;;;;;3.92;2.90;;;;;;;;;;5026957;28;20387;-56
2022/10/01 04:04:15;;;;;;;7.45;3.15;;;;;;;;;;5027042;28;20124;-57
2022/10/01 04:06:41;;;;;;;8.02;2.55;;;;;;;;;;5017544;28;20077;-57
2022/10/01 04:09:08;;;;;;;4.75;2.85;;;;;;;;;;5027220;28;20049;-57
2022/10/01 04:11:35;;;;;;;5.05;2.88;;;;;;;;;;5026775;28;20060;-57
2022/10/01 04:14:01;;;;;;;4.80;3.08;;;;;;;;;;5015614;28;20121;-56
2022/10/01 04:16:27;;;;;;;5.20;2.53;;;;;;;;;;5024317;28;20058;-57
2022/10/01 04:18:54;;;;;;;7.15;2.97;;;;;;;;;;5026514;28;20522;-57
2022/10/01 04:21:20;;;;;;;5.82;2.65;;;;;;;;;;5009147;28;20068;-56
2022/10/01 04:23:46;;;;;;;4.88;2.75;;;;;;;;;;5024247;28;21705;-56
2022/10/01 04:26:12;;;;;;;5.40;2.58;;;;;;;;;;5026512;28;20037;-57
2022/10/01 04:28:38;;;;;;;7.43;2.92;;;;;;;;;;5015612;28;20084;-57
2022/10/01 04:31:23;;;;;;;9.52;3.10;;;;;;;;;;5006402;28;20124;-56
2022/10/01 04:33:49;;;;;;;3.08;2.17;;;;;;;;;;5024059;28;20502;-55
2022/10/01 04:36:16;;;;;;;6.22;2.78;;;;;;;;;;5026601;28;20145;-55
2022/10/01 04:38:42;;;;;;;4.07;2.40;;;;;;;;;;5025504;28;20549;-56
2022/10/01 04:41:08;;;;;;;4.53;2.70;;;;;;;;;;5025124;28;20045;-56
2022/10/01 04:43:34;;;;;;;4.63;2.38;;;;;;;;;;5026256;28;20045;-56
2022/10/01 04:46:00;;;;;;;5.32;2.53;;;;;;;;;;5026844;28;20510;-56
2022/10/01 04:48:27;;;;;;;3.28;2.20;;;;;;;;;;5026489;28;20125;-56
2022/10/01 04:50:53;;;;;;;5.13;3.10;;;;;;;;;;5025796;28;20128;-56
2022/10/01 04:53:19;;;;;;;4.00;2.65;;;;;;;;;;5026149;28;20041;-57
2022/10/01 04:55:45;;;;;;;3.88;2.70;;;;;;;;;;5025492;28;20061;-56
2022/10/01 04:58:11;;;;;;;4.43;2.45;;;;;;;;;;5019306;28;20122;-56
2022/10/01 05:00:38;;;;;;;3.20;2.40;;;;;;;;;;5024152;28;20048;-57
2022/10/01 05:03:04;;;;;;;3.65;2.60;;;;;;;;;;5026727;28;20045;-57
2022/10/01 05:05:31;;;;;;;4.40;2.63;;;;;;;;;;5026176;28;20095;-56
2022/10/01 05:07:58;;;;;;;6.40;2.95;;;;;;;;;;5025499;28;20052;-56
2022/10/01 05:10:25;;;;;;;4.85;2.50;;;;;;;;;;5019340;28;20069;-56
2022/10/01 05:12:51;;;;;;;7.38;3.33;;;;;;;;;;5011723;28;20038;-57
2022/10/01 05:15:17;;;;;;;5.00;3.03;;;;;;;;;;5025229;28;20392;-57
2022/10/01 05:17:43;;;;;;;3.80;2.60;;;;;;;;;;5024370;28;20380;-57
2022/10/01 05:20:14;;;;;;;3.85;2.53;;;;;;;;;;5025302;28;20067;-56
2022/10/01 05:22:40;;;;;;;5.53;2.63;;;;;;;;;;5011688;28;20166;-56
2022/10/01 05:25:07;;;;;;;4.68;3.17;;;;;;;;;;5020392;28;20103;-57
2022/10/01 05:27:39;;;;;;;6.05;2.80;;;;;;;;;;5019388;28;20089;-56
2022/10/01 05:30:07;;;;;;;4.38;2.90;;;;;;;;;;5018617;28;20522;-56
2022/10/01 05:32:33;;;;;;;3.17;2.60;;;;;;;;;;5015268;28;20703;-58
2022/10/01 05:34:59;;;;;;;5.55;3.60;;;;;;;;;;5025746;28;20041;-56
2022/10/01 05:37:26;;;;;;;4.78;3.45;;;;;;;;;;5024439;28;20048;-57
2022/10/01 05:39:52;;;;;;;7.50;3.40;;;;;;;;;;5025367;28;20475;-57
2022/10/01 05:42:18;;;;;;;3.90;3.30;;;;;;;;;;5024880;28;20053;-57
2022/10/01 05:44:45;;;;;;;5.72;3.80;;;;;;;;;;5025181;28;20092;-57
2022/10/01 05:47:12;;;;;;;4.75;3.65;;;;;;;;;;5024955;28;20128;-57
2022/10/01 05:49:41;;;;;;;6.93;4.22;;;;;;;;;;5020098;28;20067;-56
2022/10/01 05:52:09;;;;;;;4.93;4.05;;;;;;;;;;5025002;28;20430;-57
2022/10/01 05:54:35;;;;;;;6.43;4.03;;;;;;;;;;5023786;28;20726;-57
2022/10/01 05:57:01;;;;;;;9.60;4.25;;;;;;;;;;5007932;28;20079;-57
2022/10/01 05:59:28;;;;;;;7.32;4.75;;;;;;;;;;5023982;28;20120;-56
2022/10/01 06:01:54;;;;;;;6.22;4.18;;;;;;;;;;5018457;28;20468;-55
2022/10/01 06:04:20;;;;;;;8.57;4.00;;;;;;;;;;5016185;28;20664;-57
2022/10/01 06:06:46;;;;;;;8.48;4.75;;;;;;;;;;5021126;28;20511;-57
2022/10/01 06:09:12;;;;;;;6.68;4.80;;;;;;;;;;5017200;28;20132;-57
2022/10/01 06:11:39;;;;;;;6.13;4.93;;;;;;;;;;5016826;28;20049;-58
2022/10/01 06:14:06;;;;;;;7.30;4.63;;;;;;;;;;5007017;28;20133;-59
2022/10/01 06:16:32;;;;;;;9.18;4.95;;;;;;;;;;5016269;28;20061;-61
2022/10/01 06:18:59;;;;;;;10.65;5.32;;;;;;;;;;5014931;28;20045;-59
2022/10/01 06:21:25;;;;;;;10.70;5.55;;;;;;;;;;5004922;28;20061;-60
2022/10/01 06:23:52;;;;;;;8.65;5.38;;;;;;;;;;4997597;28;20144;-58
2022/10/01 06:26:18;;;;;;;7.53;5.70;;;;;;;;;;5021534;28;20049;-57
2022/10/01 06:28:44;;;;;;;11.85;5.82;;;;;;;;;;5021702;28;20095;-58
2022/10/01 06:31:10;;;;;;;7.18;5.53;;;;;;;;;;5027019;28;20041;-58
2022/10/01 06:33:37;;;;;;;5.57;4.97;;;;;;;;;;5019278;28;20038;-60
2022/10/01 06:36:03;;;;;;;8.60;6.45;;;;;;;;;;5003243;28;20041;-59
2022/10/01 06:38:29;;;;;;;9.95;6.03;;;;;;;;;;5020409;28;20056;-59
2022/10/01 06:40:57;;;;;;;10.27;6.60;;;;;;;;;;5021050;28;20053;-58
2022/10/01 06:43:24;;;;;;;12.98;6.78;;;;;;;;;;5026944;28;20041;-59
2022/10/01 06:45:50;;;;;;;14.35;6.13;;;;;;;;;;5025403;28;20045;-58
2022/10/01 06:48:17;;;;;;;10.93;6.68;;;;;;;;;;5026784;28;20499;-58
2022/10/01 06:50:44;;;;;;;9.82;7.07;;;;;;;;;;5026462;28;20045;-59
2022/10/01 06:53:11;;;;;;;10.40;6.50;;;;;;;;;;5022575;28;20143;-59
2022/10/01 06:55:38;;;;;;;10.27;6.82;;;;;;;;;;5014209;28;20096;-58
2022/10/01 06:58:06;;;;;;;10.95;7.10;;;;;;;;;;5023500;28;20056;-58
2022/10/01 07:00:34;;;;;;;10.70;6.75;;;;;;;;;;5023963;28;20051;-59
2022/10/01 07:03:00;;;;;;;9.80;6.10;;;;;;;;;;5022487;28;20191;-58
2022/10/01 07:05:27;;;;;;;10.63;6.88;;;;;;;;;;4995133;28;20045;-58
2022/10/01 07:07:53;;;;;;;8.57;6.88;;;;;;;;;;5007267;28;20136;-58
2022/10/01 07:10:20;;;;;;;10.55;6.47;;;;;;;;;;5018431;28;20368;-58
2022/10/01 07:12:48;;;;;;;10.98;7.65;;;;;;;;;;5024292;28;20041;-58
2022/10/01 07:15:15;;;;;;;11.55;6.97;;;;;;;;;;5014905;28;20100;-58
2022/10/01 07:17:43;;;;;;;11.85;6.40;;;;;;;;;;5014614;28;20287;-58
2022/10/01 07:20:09;;;;;;;;;;;;;;;;;;5014566;28;20080;-58
2022/10/01 07:22:35;;;;;;;14.07;7.45;;;;;;;;;;5025045;28;19937;-58
2022/10/01 07:25:02;;;;;;;7.78;6.35;;;;;;;;;;5026167;28;20042;-59
2022/10/01 07:27:28;;;;;;;10.68;6.20;;;;;;;;;;5020736;28;20053;-58
2022/10/01 07:29:57;;;;;;;10.32;7.18;;;;;;;;;;5018385;28;20055;-58
2022/10/01 07:32:24;;;;;;;10.48;6.40;;;;;;;;;;5021333;28;20053;-57
2022/10/01 07:34:50;;;;;;;13.30;6.60;;;;;;;;;;5000206;28;20049;-58
2022/10/01 07:37:17;;;;;;;10.40;6.65;;;;;;;;;;5007187;28;20081;-58
2022/10/01 07:39:43;;;;;;;15.20;6.30;;;;;;;;;;5025299;28;20056;-57
2022/10/01 07:42:09;;;;;;;11.27;5.63;;;;;;;;;;5025194;28;20479;-58
2022/10/01 07:44:35;;;;;;;12.98;6.50;;;;;;;;;;5024732;28;20084;-57
2022/10/01 07:47:01;;;;;;;9.13;6.03;;;;;;;;;;4998607;28;20046;-58
2022/10/01 07:49:27;;;;;;;10.23;5.68;;;;;;;;;;5016376;28;20073;-58
2022/10/01 07:51:54;;;;;;;13.38;5.57;;;;;;;;;;5018646;28;20080;-58
2022/10/01 07:54:21;;;;;;;10.57;5.18;;;;;;;;;;5017112;28;20052;-58
2022/10/01 07:56:49;;;;;;;12.40;4.50;;;;;;;;;;5016306;28;20156;-58
2022/10/01 07:59:15;;;;;;;8.13;4.40;;;;;;;;;;5021676;28;20046;-58
2022/10/01 08:01:41;;;;;;;9.18;4.30;;;;;;;;;;5017747;28;20049;-58
2022/10/01 08:06:53;;;;;;;6.78;4.75;;;;;;;;;;5022778;28;20049;-57
2022/10/01 08:09:19;;;;;;;12.95;5.53;;;;;;;;;;5015049;28;20037;-59
2022/10/01 08:11:47;;;;;;;11.70;5.43;;;;;;;;;;5003099;28;20136;-58
2022/10/01 08:14:13;;;;;;;21.00;5.10;;;;;;;;;;5023366;28;20124;-59
2022/10/01 08:16:40;;;;;;;19.38;5.32;;;;;;;;;;5011827;28;20053;-57
2022/10/01 08:19:07;;;;;;;10.38;5.00;;;;;;;;;;5013434;28;20136;-57
2022/10/01 08:21:34;;;;;;;9.85;4.47;;;;;;;;;;5014559;28;20050;-60
2022/10/01 08:24:01;;;;;;;9.70;4.32;;;;;;;;;;5012423;28;20077;-59
2022/10/01 08:26:28;;;;;;;11.15;4.25;;;;;;;;;;5016323;28;20079;-58
2022/10/01 08:28:54;;;;;;;15.80;4.72;;;;;;;;;;5016122;28;20049;-59
2022/10/01 08:31:20;;;;;;;9.23;4.45;;;;;;;;;;5017952;28;20045;-59
2022/10/01 08:33:46;;;;;;;13.57;3.67;;;;;;;;;;5015653;28;21596;-59
2022/10/01 08:36:12;;;;;;;15.15;3.42;;;;;;;;;;5014049;28;20042;-58
2022/10/01 08:38:39;;;;;;;17.10;3.90;;;;;;;;;;5014268;28;20061;-59
2022/10/01 08:41:22;;;;;;;14.32;4.07;;;;;;;;;;5014239;28;20492;-57
2022/10/01 08:43:50;;;;;;;16.45;3.67;;;;;;;;;;5012047;28;20053;-59
2022/10/01 08:46:17;;;;;;;7.60;3.28;;;;;;;;;;5014162;28;20054;-59
2022/10/01 08:49:03;;;;;;;10.90;2.95;;;;;;;;;;5014949;28;20046;-59
2022/10/01 08:51:39;;;;;;;13.63;3.35;;;;;;;;;;5011728;28;20049;-59
2022/10/01 08:54:21;;;;;;;13.73;2.70;;;;;;;;;;5015844;28;20537;-59
2022/10/01 08:56:48;;;;;;;11.50;2.13;;;;;;;;;;5010408;28;20053;-59
2022/10/01 08:59:28;;;;;;;13.90;2.20;;;;;;;;;;5016734;28;20053;-59
2022/10/01 09:01:55;;;;;;;6.80;1.83;;;;;;;;;;5013414;28;20034;-59
2022/10/01 09:04:22;;;;;;;16.48;1.95;;;;;;;;;;5015550;28;20049;-59
2022/10/01 09:06:51;;;;;;;11.20;1.90;;;;;;;;;;5013077;28;20042;-59
2022/10/01 09:09:30;;;;;;;6.60;1.45;;;;;;;;;;5016895;28;20079;-59
2022/10/01 09:12:07;;;;;;;12.80;2.00;;;;;;;;;;5012946;28;20585;-59
2022/10/01 09:14:44;;;;;;;7.97;1.88;;;;;;;;;;5010104;28;20052;-60
2022/10/01 09:17:29;;;;;;;8.70;1.40;;;;;;;;;;5013172;28;21504;-59
2022/10/01 09:20:01;;;;;;;6.18;1.45;;;;;;;;;;5008374;28;20059;-59
2022/10/01 09:22:34;;;;;;;9.52;1.65;;;;;;;;;;5010320;28;20054;-59
2022/10/01 09:25:09;;;;;;;9.52;1.42;;;;;;;;;;5012817;28;20095;-59
2022/10/01 09:27:36;;;;;;;9.48;1.42;;;;;;;;;;5009953;28;20144;-59
2022/10/01 09:30:05;;;;;;;13.38;1.65;;;;;;;;;;5012356;28;20046;-60
2022/10/01 09:32:31;;;;;;;;;;;;;;;;;;5000697;28;20154;-60
2022/10/01 09:35:01;;;;;;;6.03;0.90;;;;;;;;;;5012440;28;20516;-63
2022/10/01 09:37:35;;;;;;;5.65;1.30;;;;;;;;;;5014620;28;20084;-58
2022/10/01 09:40:19;;;;;;;9.07;0.88;;;;;;;;;;5014234;28;20063;-58
2022/10/01 09:42:46;;;;;;;13.20;1.30;;;;;;;;;;5016226;28;20802;-58
2022/10/01 09:45:14;;;;;;;7.80;1.20;;;;;;;;;;5015759;28;20042;-58
2022/10/01 09:47:43;;;;;;;9.52;1.23;;;;;;;;;;5010440;28;20046;-58
2022/10/01 09:50:12;;;;;;;5.75;1.33;;;;;;;;;;5016586;28;20049;-58
2022/10/01 09:52:39;;;;;;;4.88;0.65;;;;;;;;;;5008173;28;20095;-58
2022/10/01 09:55:06;;;;;;;4.53;0.50;;;;;;;;;;5017760;28;20056;-59
2022/10/01 09:57:34;;;;;;;4.35;0.70;;;;;;;;;;5014252;28;20050;-59
2022/10/01 10:00:09;;;;;;;7.82;0.82;;;;;;;;;;5011153;28;20046;-59
2022/10/01 10:02:40;;;;;;;3.38;0.47;;;;;;;;;;5019647;28;20167;-59
2022/10/01 10:05:09;;;;;;;8.93;0.50;;;;;;;;;;5012680;28;20103;-59
2022/10/01 10:07:41;;;;;;;10.27;1.98;;;;;;;;;;5018381;28;20099;-58
2022/10/01 10:10:08;;;;;;;3.63;0.55;;;;;;;;;;5007221;28;20073;-61
2022/10/01 10:12:34;;;;;;;2.70;0.73;;;;;;;;;;5012776;28;20048;-60
2022/10/01 10:15:06;;;;;;;6.20;0.68;;;;;;;;;;5008457;28;20050;-60
2022/10/01 10:17:36;;;;;;;3.83;0.50;;;;;;;;;;5020087;28;20053;-59
2022/10/01 10:20:08;;;;;;;7.95;0.82;;;;;;;;;;5009223;28;20102;-60
2022/10/01 10:22:34;;;;;;;6.63;0.85;;;;;;;;;;5022333;28;20041;-59
2022/10/01 10:25:10;;;;;;;2.60;0.75;;;;;;;;;;5022578;28;20483;-59
2022/10/01 10:27:36;;;;;;;4.28;0.65;;;;;;;;;;5019457;28;20483;-59
2022/10/01 10:30:05;;;;;;;8.73;0.90;;;;;;;;;;5012431;28;20046;-60
2022/10/01 10:32:31;;;;;;;5.88;1.00;;;;;;;;;;5024674;28;20509;-58
2022/10/01 10:35:03;;;;;;;5.65;1.10;;;;;;;;;;5022312;28;20574;-58
2022/10/01 10:37:30;;;;;;;5.68;0.88;;;;;;;;;;5018519;28;20063;-58
2022/10/01 10:39:57;;;;;;;12.05;1.42;;;;;;;;;;5007402;28;20483;-59
2022/10/01 10:42:24;;;;;;;15.07;1.48;;;;;;;;;;5023506;28;20132;-58
2022/10/01 10:44:52;;;;;;;15.38;1.33;;;;;;;;;;5022430;28;20049;-58
2022/10/01 10:47:19;;;;;;;5.83;0.77;;;;;;;;;;5022459;28;20033;-58
2022/10/01 10:49:48;;;;;;;3.58;0.73;;;;;;;;;;5024148;28;20296;-58
2022/10/01 10:52:29;;;;;;;4.10;0.50;;;;;;;;;;5024677;28;20041;-58
2022/10/01 10:54:56;;;;;;;1.30;0.30;;;;;;;;;;5024866;28;20076;-58
2022/10/01 10:57:27;;;;;;;6.38;0.70;;;;;;;;;;5022549;28;20049;-58
2022/10/01 10:59:55;;;;;;;6.35;0.70;;;;;;;;;;5020125;28;20041;-58
2022/10/01 11:02:22;;;;;;;3.33;0.60;;;;;;;;;;5013966;28;20511;-58
2022/10/01 11:04:49;;;;;;;3.45;0.40;;;;;;;;;;5023689;28;20495;-60
2022/10/01 11:07:19;;;;;;;3.33;0.43;;;;;;;;;;5023971;28;20160;-59
2022/10/01 11:09:53;;;;;;;7.53;0.93;;;;;;;;;;5024314;28;20044;-59
2022/10/01 11:12:20;;;;;;;2.75;0.50;;;;;;;;;;5016350;28;20515;-58
2022/10/01 11:14:57;;;;;;;5.35;0.90;;;;;;;;;;5018208;28;20524;-59
2022/10/01 11:17:23;;;;;;;6.10;0.70;;;;;;;;;;5019274;28;20456;-59
2022/10/01 11:20:10;;;;;;;3.15;0.80;;;;;;;;;;5013839;28;20683;-59
2022/10/01 11:22:43;;;;;;;5.35;1.60;;;;;;;;;;5016969;28;20081;-60
2022/10/01 11:25:17;;;;;;;3.88;0.70;;;;;;;;;;5020636;28;20041;-58
2022/10/01 11:27:55;;;;;;;7.35;1.23;;;;;;;;;;5020050;28;20042;-60
2022/10/01 11:30:24;;;;;;;4.18;0.70;;;;;;;;;;5018522;28;20056;-59
2022/10/01 11:32:50;;;;;;;6.18;0.77;;;;;;;;;;5024410;28;20053;-60
2022/10/01 11:35:21;;;;;;;6.78;0.73;;;;;;;;;;5018453;28;20034;-59
2022/10/01 11:37:58;;;;;;;13.40;1.65;;;;;;;;;;5021719;28;20048;-59
2022/10/01 11:40:28;;;;;;;3.75;1.10;;;;;;;;;;5018560;28;20081;-59
2022/10/01 11:42:56;;;;;;;10.73;1.33;;;;;;;;;;5020873;28;20072;-59
2022/10/01 11:45:28;;;;;;;9.45;1.40;;;;;;;;;;5016588;28;20049;-60
2022/10/01 11:47:58;;;;;;;5.50;1.10;;;;;;;;;;5017935;28;20064;-59
2022/10/01 11:50:28;;;;;;;8.52;1.40;;;;;;;;;;5016432;28;20665;-58
2022/10/01 11:53:04;;;;;;;8.02;1.20;;;;;;;;;;5016385;28;20037;-59
2022/10/01 12:01:13;;;;;;;9.00;1.20;;;;;;;;;;5026065;28;20038;-59
2022/10/01 12:03:49;;;;;;;5.22;0.93;;;;;;;;;;5017005;28;20042;-59
2022/10/01 12:06:16;;;;;;;10.45;1.08;;;;;;;;;;5023534;28;20045;-59
2022/10/01 12:08:47;;;;;;;8.68;1.42;;;;;;;;;;5017853;28;20491;-60
2022/10/01 12:11:23;;;;;;;11.10;1.30;;;;;;;;;;5026447;28;20515;-59
2022/10/01 12:13:55;;;;;;;6.28;1.20;;;;;;;;;;5023544;28;20037;-60
2022/10/01 12:16:32;;;;;;;11.13;1.30;;;;;;;;;;5016491;28;20148;-59
2022/10/01 12:41:28;;;;;;;10.88;1.80;;;;;;;;;;3406744;22;22398;-56
2022/10/01 12:50:43;;;;;;;13.00;0.93;;;;;;;;;;4274743;22;22084;-59
2022/10/01 12:56:37;;;;;;;11.52;2.55;;;;;;;;;;4979333;28;20534;-60
2022/10/01 12:59:13;;;;;;;13.32;2.17;;;;;;;;;;4980670;28;20042;-58
2022/10/01 13:01:47;;;;;;;11.35;1.42;;;;;;;;;;4983598;28;20050;-58
2022/10/01 13:04:25;;;;;;;7.85;1.92;;;;;;;;;;4981347;28;20420;-59
2022/10/01 13:07:08;;;;;;;9.80;1.58;;;;;;;;;;4982663;28;20073;-58
2022/10/01 13:09:35;;;;;;;8.18;1.33;;;;;;;;;;4979276;28;20046;-59
2022/10/01 13:12:02;;;;;;;13.85;1.90;;;;;;;;;;4981958;28;20061;-58
2022/10/01 13:14:29;;;;;;;12.27;1.90;;;;;;;;;;4980011;28;20038;-60
2022/10/01 13:16:57;;;;;;;17.60;2.63;;;;;;;;;;4980019;28;20057;-60
2022/10/01 13:19:30;;;;;;;9.25;1.38;;;;;;;;;;4983116;28;20105;-58
2022/10/01 13:22:06;;;;;;;10.38;2.10;;;;;;;;;;4976145;28;20152;-58
2022/10/01 13:24:48;;;;;;;9.85;1.60;;;;;;;;;;4973145;28;20129;-59
2022/10/01 13:27:20;;;;;;;13.65;1.77;;;;;;;;;;4978050;28;20050;-59
2022/10/01 13:29:50;;;;;;;10.95;2.20;;;;;;;;;;4978287;28;20483;-59
2022/10/01 13:32:25;;;;;;;7.55;0.93;;;;;;;;;;4979944;28;20177;-59
2022/10/01 13:34:52;;;;;;;5.38;0.73;;;;;;;;;;4979920;28;20404;-59
2022/10/01 13:40:39;;;;;;;9.55;0.73;;;;;;;;;;4980264;28;20053;-59
2022/10/01 13:53:30;;;;;;;8.57;1.38;;;;;;;;;;4258690;22;20058;-59
2022/10/01 13:55:57;;;;;;;11.48;1.05;;;;;;;;;;4998697;28;20144;-59
2022/10/01 13:58:23;;;;;;;9.23;1.20;;;;;;;;;;4988806;28;20041;-59
2022/10/01 14:00:53;;;;;;;13.30;1.65;;;;;;;;;;5006070;28;20602;-59
2022/10/01 14:03:32;;;;;;;13.15;2.78;;;;;;;;;;5005246;28;20050;-59
2022/10/01 14:05:59;;;;;;;11.80;1.38;;;;;;;;;;5005576;28;20041;-58
2022/10/01 14:08:30;;;;;;;10.55;1.92;;;;;;;;;;4987177;28;20057;-58
2022/10/01 14:16:40;;;;;;;17.15;1.65;;;;;;;;;;5005775;28;20041;-59
2022/10/01 14:19:07;;;;;;;9.65;1.20;;;;;;;;;;5005911;28;20081;-61
2022/10/01 14:21:40;;;;;;;13.15;1.42;;;;;;;;;;5004048;28;20411;-59
2022/10/01 14:24:14;;;;;;;11.63;1.33;;;;;;;;;;5004719;28;20038;-60
2022/10/01 14:26:47;;;;;;;12.40;1.40;;;;;;;;;;5005440;28;20077;-59
2022/10/01 14:29:24;;;;;;;13.10;1.35;;;;;;;;;;5004968;28;20454;-59
2022/10/01 14:32:03;;;;;;;12.57;1.67;;;;;;;;;;5003491;28;20080;-59
2022/10/01 14:34:41;;;;;;;12.70;0.95;;;;;;;;;;5005280;28;20460;-59
2022/10/01 14:37:07;;;;;;;;;;;;;;;;;;5005759;28;20042;-59
2022/10/01 14:39:34;;;;;;;18.58;2.00;;;;;;;;;;5005283;28;20414;-59
2022/10/01 14:42:06;;;;;;;19.42;2.63;;;;;;;;;;5002508;28;20073;-59
2022/10/01 14:44:41;;;;;;;14.82;1.63;;;;;;;;;;4989589;28;20043;-59
2022/10/01 14:47:13;;;;;;;17.60;2.25;;;;;;;;;;4993746;28;20487;-59
2022/10/01 14:49:39;;;;;;;9.45;1.58;;;;;;;;;;4988052;28;20492;-59
2022/10/01 14:52:07;;;;;;;15.80;2.47;;;;;;;;;;4993921;28;20053;-59
2022/10/01 14:54:45;;;;;;;15.47;1.83;;;;;;;;;;4996546;28;20057;-58
2022/10/01 14:57:13;;;;;;;13.50;2.35;;;;;;;;;;5004543;28;20304;-59
2022/10/01 14:59:40;;;;;;;8.63;2.10;;;;;;;;;;5007957;28;20041;-59
2022/10/01 15:02:19;;;;;;;9.00;1.25;;;;;;;;;;5008431;28;20045;-60
2022/10/01 15:04:46;;;;;;;13.27;1.50;;;;;;;;;;5008274;28;20050;-58
2022/10/01 15:07:14;;;;;;;15.75;1.80;;;;;;;;;;5008524;28;20038;-59
2022/10/01 15:09:41;;;;;;;18.23;1.98;;;;;;;;;;5007402;28;20081;-58
2022/10/01 15:12:07;;;;;;;14.32;1.88;;;;;;;;;;4990460;28;20472;-58
2022/10/01 15:14:34;;;;;;;13.75;1.88;;;;;;;;;;5008777;28;20479;-59
2022/10/01 15:17:03;;;;;;;12.90;1.30;;;;;;;;;;5008601;28;20045;-58
2022/10/01 15:19:29;;;;;;;14.32;2.38;;;;;;;;;;5007522;28;20034;-59
2022/10/01 15:21:57;;;;;;;9.00;1.63;;;;;;;;;;5008192;28;20116;-58
2022/10/01 15:24:25;;;;;;;9.73;1.02;;;;;;;;;;5007041;28;20099;-59
2022/10/01 15:26:53;;;;;;;11.90;1.42;;;;;;;;;;5007926;28;20049;-58
2022/10/01 15:29:19;;;;;;;11.98;1.58;;;;;;;;;;5007798;28;20099;-58
2022/10/01 15:31:47;;;;;;;9.40;1.48;;;;;;;;;;5007950;28;20038;-59
2022/10/01 15:34:15;;;;;;;10.60;1.70;;;;;;;;;;5006910;28;20400;-59
2022/10/01 15:36:42;;;;;;;14.73;1.92;;;;;;;;;;5004685;28;20574;-59
2022/10/01 15:39:27;;;;;;;9.52;1.15;;;;;;;;;;5003423;28;20069;-59
2022/10/01 15:41:54;;;;;;;13.40;1.38;;;;;;;;;;4992667;28;20096;-58
2022/10/01 15:44:36;;;;;;;10.57;1.92;;;;;;;;;;4991605;28;20761;-59
2022/10/01 15:47:21;;;;;;;6.72;1.10;;;;;;;;;;5007794;28;20056;-58
2022/10/01 15:50:01;;;;;;;11.75;1.20;;;;;;;;;;5005641;28;20080;-59